sensor_id;sensor_type;location;lat;lon;timestamp;P1;durP1;ratioP1;P2;durP2;ratioP2
19854;SDS011;10088;47.946;2.532;2023-06-14T00:00:09;5.27;;;4.30;;
19854;SDS011;10088;47.946;2.532;2023-06-14T00:02:38;7.47;;;4.57;;
19854;SDS011;10088;47.946;2.532;2023-06-14T00:05:03;5.10;;;4.00;;
19854;SDS011;10088;47.946;2.532;2023-06-14T00:07:36;4.67;;;3.73;;
19854;SDS011;10088;47.946;2.532;2023-06-14T00:10:02;6.03;;;4.43;;
19854;SDS011;10088;47.946;2.532;2023-06-14T00:12:28;8.53;;;4.70;;
19854;SDS011;10088;47.946;2.532;2023-06-14T00:14:53;10.40;;;4.63;;
19854;SDS011;10088;47.946;2.532;2023-06-14T00:17:18;10.63;;;4.73;;
19854;SDS011;10088;47.946;2.532;2023-06-14T00:19:44;6.07;;;4.37;;
19854;SDS011;10088;47.946;2.532;2023-06-14T00:22:09;8.37;;;4.97;;
19854;SDS011;10088;47.946;2.532;2023-06-14T00:24:35;5.30;;;4.30;;
19854;SDS011;10088;47.946;2.532;2023-06-14T00:27:00;5.53;;;4.63;;
19854;SDS011;10088;47.946;2.532;2023-06-14T00:29:26;6.43;;;4.53;;
19854;SDS011;10088;47.946;2.532;2023-06-14T00:31:51;5.40;;;4.63;;
19854;SDS011;10088;47.946;2.532;2023-06-14T00:34:16;8.27;;;5.10;;
19854;SDS011;10088;47.946;2.532;2023-06-14T00:36:42;5.97;;;4.17;;
19854;SDS011;10088;47.946;2.532;2023-06-14T00:39:07;7.27;;;4.10;;
19854;SDS011;10088;47.946;2.532;2023-06-14T00:41:32;4.57;;;4.17;;
19854;SDS011;10088;47.946;2.532;2023-06-14T00:43:57;7.10;;;3.83;;
19854;SDS011;10088;47.946;2.532;2023-06-14T00:46:24;5.57;;;4.10;;
19854;SDS011;10088;47.946;2.532;2023-06-14T00:48:50;4.83;;;4.33;;
19854;SDS011;10088;47.946;2.532;2023-06-14T00:51:15;5.90;;;4.47;;
19854;SDS011;10088;47.946;2.532;2023-06-14T00:53:41;11.17;;;4.43;;
19854;SDS011;10088;47.946;2.532;2023-06-14T00:56:11;9.97;;;4.40;;
19854;SDS011;10088;47.946;2.532;2023-06-14T00:58:38;8.03;;;4.80;;
19854;SDS011;10088;47.946;2.532;2023-06-14T01:01:03;5.73;;;4.47;;
19854;SDS011;10088;47.946;2.532;2023-06-14T01:03:29;5.57;;;4.57;;
19854;SDS011;10088;47.946;2.532;2023-06-14T01:05:58;4.87;;;3.83;;
19854;SDS011;10088;47.946;2.532;2023-06-14T01:11:16;5.43;;;4.20;;
19854;SDS011;10088;47.946;2.532;2023-06-14T01:13:43;5.67;;;4.50;;
19854;SDS011;10088;47.946;2.532;2023-06-14T01:16:10;10.17;;;4.43;;
19854;SDS011;10088;47.946;2.532;2023-06-14T01:18:35;5.03;;;4.13;;
19854;SDS011;10088;47.946;2.532;2023-06-14T01:21:01;5.20;;;4.53;;
19854;SDS011;10088;47.946;2.532;2023-06-14T01:23:30;6.53;;;4.67;;
19854;SDS011;10088;47.946;2.532;2023-06-14T01:25:58;5.60;;;4.60;;
19854;SDS011;10088;47.946;2.532;2023-06-14T01:28:23;5.47;;;4.70;;
19854;SDS011;10088;47.946;2.532;2023-06-14T01:30:50;6.80;;;4.43;;
19854;SDS011;10088;47.946;2.532;2023-06-14T01:33:24;4.63;;;4.23;;
19854;SDS011;10088;47.946;2.532;2023-06-14T01:35:51;6.30;;;5.07;;
19854;SDS011;10088;47.946;2.532;2023-06-14T01:38:17;10.60;;;5.10;;
19854;SDS011;10088;47.946;2.532;2023-06-14T01:40:44;5.53;;;4.70;;
19854;SDS011;10088;47.946;2.532;2023-06-14T01:43:10;10.63;;;5.00;;
19854;SDS011;10088;47.946;2.532;2023-06-14T01:45:36;7.30;;;5.00;;
19854;SDS011;10088;47.946;2.532;2023-06-14T01:48:02;6.93;;;4.93;;
19854;SDS011;10088;47.946;2.532;2023-06-14T01:50:28;8.53;;;4.83;;
19854;SDS011;10088;47.946;2.532;2023-06-14T01:52:53;7.00;;;4.80;;
19854;SDS011;10088;47.946;2.532;2023-06-14T01:55:19;7.80;;;5.17;;
19854;SDS011;10088;47.946;2.532;2023-06-14T01:57:48;8.60;;;4.43;;
19854;SDS011;10088;47.946;2.532;2023-06-14T02:00:13;5.93;;;4.70;;
19854;SDS011;10088;47.946;2.532;2023-06-14T02:02:39;7.70;;;5.37;;
19854;SDS011;10088;47.946;2.532;2023-06-14T02:05:05;5.00;;;4.47;;
19854;SDS011;10088;47.946;2.532;2023-06-14T02:07:30;7.60;;;4.50;;
19854;SDS011;10088;47.946;2.532;2023-06-14T02:09:55;6.77;;;4.90;;
19854;SDS011;10088;47.946;2.532;2023-06-14T02:12:21;7.47;;;4.77;;
19854;SDS011;10088;47.946;2.532;2023-06-14T02:14:46;7.10;;;4.37;;
19854;SDS011;10088;47.946;2.532;2023-06-14T02:17:11;5.67;;;4.40;;
19854;SDS011;10088;47.946;2.532;2023-06-14T02:19:36;8.57;;;4.50;;
19854;SDS011;10088;47.946;2.532;2023-06-14T02:22:02;6.73;;;4.20;;
19854;SDS011;10088;47.946;2.532;2023-06-14T02:24:27;6.73;;;4.63;;
19854;SDS011;10088;47.946;2.532;2023-06-14T02:26:52;5.57;;;4.80;;
19854;SDS011;10088;47.946;2.532;2023-06-14T02:29:17;5.40;;;4.90;;
19854;SDS011;10088;47.946;2.532;2023-06-14T02:31:43;8.13;;;4.83;;
19854;SDS011;10088;47.946;2.532;2023-06-14T02:34:08;5.37;;;4.67;;
19854;SDS011;10088;47.946;2.532;2023-06-14T02:36:34;6.77;;;4.70;;
19854;SDS011;10088;47.946;2.532;2023-06-14T02:38:59;6.23;;;4.60;;
19854;SDS011;10088;47.946;2.532;2023-06-14T02:41:25;5.67;;;4.80;;
19854;SDS011;10088;47.946;2.532;2023-06-14T02:43:51;6.13;;;4.90;;
19854;SDS011;10088;47.946;2.532;2023-06-14T02:46:16;11.53;;;5.00;;
19854;SDS011;10088;47.946;2.532;2023-06-14T02:48:41;5.47;;;4.47;;
19854;SDS011;10088;47.946;2.532;2023-06-14T02:51:06;7.93;;;4.60;;
19854;SDS011;10088;47.946;2.532;2023-06-14T02:53:33;6.37;;;4.83;;
19854;SDS011;10088;47.946;2.532;2023-06-14T02:55:58;6.80;;;4.60;;
19854;SDS011;10088;47.946;2.532;2023-06-14T02:58:24;5.40;;;4.80;;
19854;SDS011;10088;47.946;2.532;2023-06-14T03:00:50;7.03;;;4.90;;
19854;SDS011;10088;47.946;2.532;2023-06-14T03:03:17;9.00;;;5.43;;
19854;SDS011;10088;47.946;2.532;2023-06-14T03:05:44;6.70;;;4.93;;
19854;SDS011;10088;47.946;2.532;2023-06-14T03:08:12;7.63;;;4.57;;
19854;SDS011;10088;47.946;2.532;2023-06-14T03:10:50;5.10;;;4.50;;
19854;SDS011;10088;47.946;2.532;2023-06-14T03:13:16;9.23;;;4.47;;
19854;SDS011;10088;47.946;2.532;2023-06-14T03:15:44;4.53;;;4.13;;
19854;SDS011;10088;47.946;2.532;2023-06-14T03:18:10;4.90;;;4.47;;
19854;SDS011;10088;47.946;2.532;2023-06-14T03:20:37;5.87;;;4.77;;
19854;SDS011;10088;47.946;2.532;2023-06-14T03:23:02;10.50;;;4.93;;
19854;SDS011;10088;47.946;2.532;2023-06-14T03:25:31;6.50;;;4.27;;
19854;SDS011;10088;47.946;2.532;2023-06-14T03:27:56;6.83;;;5.10;;
19854;SDS011;10088;47.946;2.532;2023-06-14T03:30:22;7.50;;;4.80;;
19854;SDS011;10088;47.946;2.532;2023-06-14T03:32:47;6.63;;;5.03;;
19854;SDS011;10088;47.946;2.532;2023-06-14T03:35:12;7.40;;;5.47;;
19854;SDS011;10088;47.946;2.532;2023-06-14T03:37:45;6.00;;;5.13;;
19854;SDS011;10088;47.946;2.532;2023-06-14T03:40:11;6.87;;;4.63;;
19854;SDS011;10088;47.946;2.532;2023-06-14T03:42:37;8.20;;;5.37;;
19854;SDS011;10088;47.946;2.532;2023-06-14T03:45:02;5.80;;;5.20;;
19854;SDS011;10088;47.946;2.532;2023-06-14T03:47:28;7.10;;;4.93;;
19854;SDS011;10088;47.946;2.532;2023-06-14T03:49:53;7.07;;;5.00;;
19854;SDS011;10088;47.946;2.532;2023-06-14T03:52:18;5.40;;;4.90;;
19854;SDS011;10088;47.946;2.532;2023-06-14T03:54:44;6.53;;;5.20;;
19854;SDS011;10088;47.946;2.532;2023-06-14T03:57:09;7.53;;;5.20;;
19854;SDS011;10088;47.946;2.532;2023-06-14T03:59:35;5.67;;;5.07;;
19854;SDS011;10088;47.946;2.532;2023-06-14T04:02:01;7.23;;;5.23;;
19854;SDS011;10088;47.946;2.532;2023-06-14T04:04:27;8.57;;;5.43;;
19854;SDS011;10088;47.946;2.532;2023-06-14T04:06:57;5.20;;;4.70;;
19854;SDS011;10088;47.946;2.532;2023-06-14T04:09:24;6.07;;;5.17;;
19854;SDS011;10088;47.946;2.532;2023-06-14T04:11:50;5.47;;;4.80;;
19854;SDS011;10088;47.946;2.532;2023-06-14T04:14:16;9.00;;;5.77;;
19854;SDS011;10088;47.946;2.532;2023-06-14T04:16:41;6.20;;;5.53;;
19854;SDS011;10088;47.946;2.532;2023-06-14T04:19:06;6.40;;;5.80;;
19854;SDS011;10088;47.946;2.532;2023-06-14T04:21:31;6.33;;;5.60;;
19854;SDS011;10088;47.946;2.532;2023-06-14T04:23:59;6.73;;;5.30;;
19854;SDS011;10088;47.946;2.532;2023-06-14T04:26:26;6.47;;;5.50;;
19854;SDS011;10088;47.946;2.532;2023-06-14T04:28:55;6.90;;;5.03;;
19854;SDS011;10088;47.946;2.532;2023-06-14T04:31:22;11.10;;;5.57;;
19854;SDS011;10088;47.946;2.532;2023-06-14T04:33:49;6.37;;;5.50;;
19854;SDS011;10088;47.946;2.532;2023-06-14T04:36:16;10.27;;;5.90;;
19854;SDS011;10088;47.946;2.532;2023-06-14T04:38:43;6.33;;;4.93;;
19854;SDS011;10088;47.946;2.532;2023-06-14T04:41:10;7.47;;;5.43;;
19854;SDS011;10088;47.946;2.532;2023-06-14T04:43:36;7.40;;;4.77;;
19854;SDS011;10088;47.946;2.532;2023-06-14T04:46:06;10.27;;;5.10;;
19854;SDS011;10088;47.946;2.532;2023-06-14T04:48:36;10.17;;;5.57;;
19854;SDS011;10088;47.946;2.532;2023-06-14T04:51:01;6.87;;;5.37;;
19854;SDS011;10088;47.946;2.532;2023-06-14T04:53:29;6.97;;;5.43;;
19854;SDS011;10088;47.946;2.532;2023-06-14T04:55:54;9.27;;;5.03;;
19854;SDS011;10088;47.946;2.532;2023-06-14T04:58:19;7.77;;;5.20;;
19854;SDS011;10088;47.946;2.532;2023-06-14T05:00:45;7.43;;;5.00;;
19854;SDS011;10088;47.946;2.532;2023-06-14T05:03:10;6.83;;;5.47;;
19854;SDS011;10088;47.946;2.532;2023-06-14T05:05:38;9.40;;;5.73;;
19854;SDS011;10088;47.946;2.532;2023-06-14T05:08:04;5.53;;;4.93;;
19854;SDS011;10088;47.946;2.532;2023-06-14T05:10:29;5.60;;;4.90;;
19854;SDS011;10088;47.946;2.532;2023-06-14T05:12:54;6.70;;;4.93;;
19854;SDS011;10088;47.946;2.532;2023-06-14T05:15:20;5.50;;;4.90;;
19854;SDS011;10088;47.946;2.532;2023-06-14T05:17:50;8.80;;;5.83;;
19854;SDS011;10088;47.946;2.532;2023-06-14T05:20:19;7.37;;;4.77;;
19854;SDS011;10088;47.946;2.532;2023-06-14T05:22:45;7.03;;;5.40;;
19854;SDS011;10088;47.946;2.532;2023-06-14T05:25:10;7.30;;;5.13;;
19854;SDS011;10088;47.946;2.532;2023-06-14T05:27:35;5.90;;;5.30;;
19854;SDS011;10088;47.946;2.532;2023-06-14T05:30:02;8.67;;;5.73;;
19854;SDS011;10088;47.946;2.532;2023-06-14T05:32:29;8.33;;;5.83;;
19854;SDS011;10088;47.946;2.532;2023-06-14T05:34:54;7.17;;;5.77;;
19854;SDS011;10088;47.946;2.532;2023-06-14T05:37:19;11.77;;;5.43;;
19854;SDS011;10088;47.946;2.532;2023-06-14T05:39:44;5.83;;;5.07;;
19854;SDS011;10088;47.946;2.532;2023-06-14T05:42:10;6.13;;;5.27;;
19854;SDS011;10088;47.946;2.532;2023-06-14T05:44:36;6.90;;;4.87;;
19854;SDS011;10088;47.946;2.532;2023-06-14T05:47:01;7.87;;;5.40;;
19854;SDS011;10088;47.946;2.532;2023-06-14T05:49:26;9.57;;;4.80;;
19854;SDS011;10088;47.946;2.532;2023-06-14T05:51:51;6.50;;;5.10;;
19854;SDS011;10088;47.946;2.532;2023-06-14T05:54:17;8.17;;;4.70;;
19854;SDS011;10088;47.946;2.532;2023-06-14T05:56:42;6.67;;;4.63;;
19854;SDS011;10088;47.946;2.532;2023-06-14T05:59:07;7.50;;;4.90;;
19854;SDS011;10088;47.946;2.532;2023-06-14T06:01:32;6.70;;;5.20;;
19854;SDS011;10088;47.946;2.532;2023-06-14T06:03:58;5.30;;;4.70;;
19854;SDS011;10088;47.946;2.532;2023-06-14T06:06:24;8.20;;;5.40;;
19854;SDS011;10088;47.946;2.532;2023-06-14T06:08:50;5.90;;;4.67;;
19854;SDS011;10088;47.946;2.532;2023-06-14T06:11:15;7.70;;;5.17;;
19854;SDS011;10088;47.946;2.532;2023-06-14T06:13:40;7.13;;;4.70;;
19854;SDS011;10088;47.946;2.532;2023-06-14T06:16:06;6.10;;;4.40;;
19854;SDS011;10088;47.946;2.532;2023-06-14T06:18:31;5.73;;;4.67;;
19854;SDS011;10088;47.946;2.532;2023-06-14T06:20:56;6.07;;;4.43;;
19854;SDS011;10088;47.946;2.532;2023-06-14T06:23:22;8.80;;;4.47;;
19854;SDS011;10088;47.946;2.532;2023-06-14T06:25:47;4.73;;;4.03;;
19854;SDS011;10088;47.946;2.532;2023-06-14T06:28:12;7.23;;;3.97;;
19854;SDS011;10088;47.946;2.532;2023-06-14T06:30:38;7.43;;;4.33;;
19854;SDS011;10088;47.946;2.532;2023-06-14T06:33:03;6.20;;;3.90;;
19854;SDS011;10088;47.946;2.532;2023-06-14T06:35:29;5.87;;;3.97;;
19854;SDS011;10088;47.946;2.532;2023-06-14T06:37:55;6.73;;;3.97;;
19854;SDS011;10088;47.946;2.532;2023-06-14T06:40:21;6.33;;;3.77;;
19854;SDS011;10088;47.946;2.532;2023-06-14T06:42:46;4.53;;;3.33;;
19854;SDS011;10088;47.946;2.532;2023-06-14T06:45:11;7.87;;;4.00;;
19854;SDS011;10088;47.946;2.532;2023-06-14T06:47:36;4.20;;;3.80;;
19854;SDS011;10088;47.946;2.532;2023-06-14T06:50:02;7.00;;;3.63;;
19854;SDS011;10088;47.946;2.532;2023-06-14T06:52:27;5.03;;;3.53;;
19854;SDS011;10088;47.946;2.532;2023-06-14T06:54:52;6.03;;;3.70;;
19854;SDS011;10088;47.946;2.532;2023-06-14T06:57:20;4.77;;;3.83;;
19854;SDS011;10088;47.946;2.532;2023-06-14T06:59:46;4.23;;;3.60;;
19854;SDS011;10088;47.946;2.532;2023-06-14T07:02:11;6.43;;;3.50;;
19854;SDS011;10088;47.946;2.532;2023-06-14T07:04:36;5.67;;;3.50;;
19854;SDS011;10088;47.946;2.532;2023-06-14T07:07:02;4.33;;;3.27;;
19854;SDS011;10088;47.946;2.532;2023-06-14T07:09:27;7.70;;;3.70;;
19854;SDS011;10088;47.946;2.532;2023-06-14T07:11:52;5.20;;;3.60;;
19854;SDS011;10088;47.946;2.532;2023-06-14T07:14:17;5.70;;;3.30;;
19854;SDS011;10088;47.946;2.532;2023-06-14T07:16:43;6.53;;;3.60;;
19854;SDS011;10088;47.946;2.532;2023-06-14T07:19:08;4.33;;;3.50;;
19854;SDS011;10088;47.946;2.532;2023-06-14T07:21:34;6.67;;;3.63;;
19854;SDS011;10088;47.946;2.532;2023-06-14T07:23:59;7.87;;;3.40;;
19854;SDS011;10088;47.946;2.532;2023-06-14T07:26:24;3.53;;;3.23;;
19854;SDS011;10088;47.946;2.532;2023-06-14T07:28:50;5.47;;;3.70;;
19854;SDS011;10088;47.946;2.532;2023-06-14T07:31:16;5.10;;;3.53;;
19854;SDS011;10088;47.946;2.532;2023-06-14T07:33:41;5.23;;;3.73;;
19854;SDS011;10088;47.946;2.532;2023-06-14T07:36:07;5.20;;;3.60;;
19854;SDS011;10088;47.946;2.532;2023-06-14T07:38:32;6.40;;;3.60;;
19854;SDS011;10088;47.946;2.532;2023-06-14T07:40:57;7.37;;;3.80;;
19854;SDS011;10088;47.946;2.532;2023-06-14T07:43:23;5.60;;;4.23;;
19854;SDS011;10088;47.946;2.532;2023-06-14T07:45:48;4.00;;;3.10;;
19854;SDS011;10088;47.946;2.532;2023-06-14T07:48:13;3.97;;;3.10;;
19854;SDS011;10088;47.946;2.532;2023-06-14T07:50:38;5.18;;;3.53;;
19854;SDS011;10088;47.946;2.532;2023-06-14T07:53:04;4.25;;;3.33;;
19854;SDS011;10088;47.946;2.532;2023-06-14T07:55:29;4.33;;;3.40;;
19854;SDS011;10088;47.946;2.532;2023-06-14T07:57:55;4.32;;;3.50;;
19854;SDS011;10088;47.946;2.532;2023-06-14T08:00:21;6.25;;;3.58;;
19854;SDS011;10088;47.946;2.532;2023-06-14T08:02:46;4.30;;;3.65;;
19854;SDS011;10088;47.946;2.532;2023-06-14T08:05:11;5.20;;;3.33;;
19854;SDS011;10088;47.946;2.532;2023-06-14T08:07:37;6.28;;;3.33;;
19854;SDS011;10088;47.946;2.532;2023-06-14T08:10:03;8.60;;;3.55;;
19854;SDS011;10088;47.946;2.532;2023-06-14T08:12:29;5.97;;;3.22;;
19854;SDS011;10088;47.946;2.532;2023-06-14T08:14:54;4.47;;;3.42;;
19854;SDS011;10088;47.946;2.532;2023-06-14T08:17:20;5.60;;;3.60;;
19854;SDS011;10088;47.946;2.532;2023-06-14T08:19:45;7.85;;;3.75;;
19854;SDS011;10088;47.946;2.532;2023-06-14T08:22:10;5.45;;;3.60;;
19854;SDS011;10088;47.946;2.532;2023-06-14T08:24:37;5.80;;;3.30;;
19854;SDS011;10088;47.946;2.532;2023-06-14T08:27:02;4.43;;;3.20;;
19854;SDS011;10088;47.946;2.532;2023-06-14T08:29:28;5.60;;;3.35;;
19854;SDS011;10088;47.946;2.532;2023-06-14T08:31:56;4.80;;;3.17;;
19854;SDS011;10088;47.946;2.532;2023-06-14T08:34:21;4.60;;;3.33;;
19854;SDS011;10088;47.946;2.532;2023-06-14T08:36:48;12.60;;;3.85;;
19854;SDS011;10088;47.946;2.532;2023-06-14T08:39:13;4.40;;;3.00;;
19854;SDS011;10088;47.946;2.532;2023-06-14T08:41:39;3.53;;;3.13;;
19854;SDS011;10088;47.946;2.532;2023-06-14T08:44:04;4.15;;;3.40;;
19854;SDS011;10088;47.946;2.532;2023-06-14T08:46:30;6.03;;;3.47;;
19854;SDS011;10088;47.946;2.532;2023-06-14T08:48:57;6.55;;;2.97;;
19854;SDS011;10088;47.946;2.532;2023-06-14T08:51:24;4.70;;;3.03;;
19854;SDS011;10088;47.946;2.532;2023-06-14T08:53:52;3.97;;;2.80;;
19854;SDS011;10088;47.946;2.532;2023-06-14T08:56:18;3.15;;;2.85;;
19854;SDS011;10088;47.946;2.532;2023-06-14T08:58:43;5.25;;;3.15;;
19854;SDS011;10088;47.946;2.532;2023-06-14T09:01:10;6.18;;;2.85;;
19854;SDS011;10088;47.946;2.532;2023-06-14T09:03:39;4.50;;;3.13;;
19854;SDS011;10088;47.946;2.532;2023-06-14T09:06:06;5.25;;;3.60;;
19854;SDS011;10088;47.946;2.532;2023-06-14T09:08:33;3.63;;;3.10;;
19854;SDS011;10088;47.946;2.532;2023-06-14T09:11:00;8.60;;;3.15;;
19854;SDS011;10088;47.946;2.532;2023-06-14T09:13:26;7.28;;;2.95;;
19854;SDS011;10088;47.946;2.532;2023-06-14T09:15:51;4.15;;;3.20;;
19854;SDS011;10088;47.946;2.532;2023-06-14T09:18:17;2.95;;;2.70;;
19854;SDS011;10088;47.946;2.532;2023-06-14T09:20:42;5.43;;;3.20;;
19854;SDS011;10088;47.946;2.532;2023-06-14T09:23:08;4.00;;;2.72;;
19854;SDS011;10088;47.946;2.532;2023-06-14T09:25:43;4.90;;;3.13;;
19854;SDS011;10088;47.946;2.532;2023-06-14T09:28:09;5.28;;;2.95;;
19854;SDS011;10088;47.946;2.532;2023-06-14T09:30:35;3.40;;;3.10;;
19854;SDS011;10088;47.946;2.532;2023-06-14T09:33:00;4.22;;;3.20;;
19854;SDS011;10088;47.946;2.532;2023-06-14T09:35:26;3.30;;;3.00;;
19854;SDS011;10088;47.946;2.532;2023-06-14T09:37:53;4.18;;;2.85;;
19854;SDS011;10088;47.946;2.532;2023-06-14T09:40:20;6.47;;;3.70;;
19854;SDS011;10088;47.946;2.532;2023-06-14T09:42:46;4.78;;;3.08;;
19854;SDS011;10088;47.946;2.532;2023-06-14T09:45:12;5.05;;;2.95;;
19854;SDS011;10088;47.946;2.532;2023-06-14T09:47:39;9.25;;;3.30;;
19854;SDS011;10088;47.946;2.532;2023-06-14T09:50:04;4.05;;;3.13;;
19854;SDS011;10088;47.946;2.532;2023-06-14T09:52:30;4.90;;;2.97;;
19854;SDS011;10088;47.946;2.532;2023-06-14T09:54:56;3.20;;;2.85;;
19854;SDS011;10088;47.946;2.532;2023-06-14T09:57:23;6.72;;;2.60;;
19854;SDS011;10088;47.946;2.532;2023-06-14T09:59:52;4.13;;;3.30;;
19854;SDS011;10088;47.946;2.532;2023-06-14T10:04:51;2.80;;;2.58;;
19854;SDS011;10088;47.946;2.532;2023-06-14T10:07:19;4.00;;;3.40;;
19854;SDS011;10088;47.946;2.532;2023-06-14T10:09:44;3.03;;;2.58;;
19854;SDS011;10088;47.946;2.532;2023-06-14T10:12:15;5.72;;;2.58;;
19854;SDS011;10088;47.946;2.532;2023-06-14T10:14:45;4.63;;;2.83;;
19854;SDS011;10088;47.946;2.532;2023-06-14T10:17:12;4.90;;;3.33;;
19854;SDS011;10088;47.946;2.532;2023-06-14T10:19:44;5.28;;;2.83;;
19854;SDS011;10088;47.946;2.532;2023-06-14T10:22:14;5.85;;;2.90;;
19854;SDS011;10088;47.946;2.532;2023-06-14T10:24:43;3.80;;;2.55;;
19854;SDS011;10088;47.946;2.532;2023-06-14T10:27:08;5.43;;;2.77;;
19854;SDS011;10088;47.946;2.532;2023-06-14T10:32:17;3.40;;;2.60;;
19854;SDS011;10088;47.946;2.532;2023-06-14T10:34:44;5.27;;;2.87;;
19854;SDS011;10088;47.946;2.532;2023-06-14T10:37:13;5.30;;;2.97;;
19854;SDS011;10088;47.946;2.532;2023-06-14T10:39:42;4.93;;;2.50;;
19854;SDS011;10088;47.946;2.532;2023-06-14T10:42:07;5.20;;;3.80;;
19854;SDS011;10088;47.946;2.532;2023-06-14T10:44:46;4.10;;;3.17;;
19854;SDS011;10088;47.946;2.532;2023-06-14T10:49:43;3.20;;;2.43;;
19854;SDS011;10088;47.946;2.532;2023-06-14T10:52:10;3.83;;;2.60;;
19854;SDS011;10088;47.946;2.532;2023-06-14T10:57:29;5.77;;;2.90;;
19854;SDS011;10088;47.946;2.532;2023-06-14T10:59:56;2.77;;;2.30;;
19854;SDS011;10088;47.946;2.532;2023-06-14T11:05:02;3.53;;;2.47;;
19854;SDS011;10088;47.946;2.532;2023-06-14T11:12:40;5.47;;;2.33;;
19854;SDS011;10088;47.946;2.532;2023-06-14T11:15:07;7.40;;;2.93;;
19854;SDS011;10088;47.946;2.532;2023-06-14T11:17:33;3.73;;;2.53;;
19854;SDS011;10088;47.946;2.532;2023-06-14T11:20:11;4.07;;;2.60;;
19854;SDS011;10088;47.946;2.532;2023-06-14T11:22:41;3.17;;;2.57;;
19854;SDS011;10088;47.946;2.532;2023-06-14T11:25:08;3.23;;;2.30;;
19854;SDS011;10088;47.946;2.532;2023-06-14T11:27:33;3.90;;;2.70;;
19854;SDS011;10088;47.946;2.532;2023-06-14T11:29:59;4.87;;;2.70;;
19854;SDS011;10088;47.946;2.532;2023-06-14T11:32:24;4.33;;;2.67;;
19854;SDS011;10088;47.946;2.532;2023-06-14T11:34:49;2.77;;;2.57;;
19854;SDS011;10088;47.946;2.532;2023-06-14T11:37:16;4.03;;;2.50;;
19854;SDS011;10088;47.946;2.532;2023-06-14T11:39:44;5.47;;;2.60;;
19854;SDS011;10088;47.946;2.532;2023-06-14T11:42:14;7.00;;;2.90;;
19854;SDS011;10088;47.946;2.532;2023-06-14T11:44:40;3.67;;;2.77;;
19854;SDS011;10088;47.946;2.532;2023-06-14T11:47:05;2.47;;;2.27;;
19854;SDS011;10088;47.946;2.532;2023-06-14T11:49:34;2.87;;;2.33;;
19854;SDS011;10088;47.946;2.532;2023-06-14T11:52:00;8.57;;;3.13;;
19854;SDS011;10088;47.946;2.532;2023-06-14T11:54:25;4.87;;;2.33;;
19854;SDS011;10088;47.946;2.532;2023-06-14T11:56:51;3.63;;;2.30;;
19854;SDS011;10088;47.946;2.532;2023-06-14T11:59:16;3.70;;;2.30;;
19854;SDS011;10088;47.946;2.532;2023-06-14T12:01:42;7.27;;;2.60;;
19854;SDS011;10088;47.946;2.532;2023-06-14T12:04:08;4.93;;;2.70;;
19854;SDS011;10088;47.946;2.532;2023-06-14T12:06:33;3.93;;;2.57;;
19854;SDS011;10088;47.946;2.532;2023-06-14T12:09:04;4.83;;;2.47;;
19854;SDS011;10088;47.946;2.532;2023-06-14T12:11:32;6.47;;;2.83;;
19854;SDS011;10088;47.946;2.532;2023-06-14T12:13:58;6.13;;;2.43;;
19854;SDS011;10088;47.946;2.532;2023-06-14T12:16:29;2.83;;;2.10;;
19854;SDS011;10088;47.946;2.532;2023-06-14T12:18:55;7.37;;;2.50;;
19854;SDS011;10088;47.946;2.532;2023-06-14T12:21:22;5.43;;;2.60;;
19854;SDS011;10088;47.946;2.532;2023-06-14T12:23:48;5.30;;;2.30;;
19854;SDS011;10088;47.946;2.532;2023-06-14T12:26:15;5.57;;;2.63;;
19854;SDS011;10088;47.946;2.532;2023-06-14T12:28:41;5.47;;;2.30;;
19854;SDS011;10088;47.946;2.532;2023-06-14T12:31:10;2.77;;;2.47;;
19854;SDS011;10088;47.946;2.532;2023-06-14T12:33:37;6.17;;;2.13;;
19854;SDS011;10088;47.946;2.532;2023-06-14T12:36:06;3.87;;;2.50;;
19854;SDS011;10088;47.946;2.532;2023-06-14T12:38:32;3.37;;;2.30;;
19854;SDS011;10088;47.946;2.532;2023-06-14T12:40:57;5.13;;;2.33;;
19854;SDS011;10088;47.946;2.532;2023-06-14T12:43:23;4.23;;;2.47;;
19854;SDS011;10088;47.946;2.532;2023-06-14T12:45:48;4.60;;;2.70;;
19854;SDS011;10088;47.946;2.532;2023-06-14T12:48:14;4.40;;;2.50;;
19854;SDS011;10088;47.946;2.532;2023-06-14T12:50:40;3.70;;;2.37;;
19854;SDS011;10088;47.946;2.532;2023-06-14T12:53:05;3.75;;;2.58;;
19854;SDS011;10088;47.946;2.532;2023-06-14T12:55:31;2.67;;;2.40;;
19854;SDS011;10088;47.946;2.532;2023-06-14T12:57:57;4.00;;;2.55;;
19854;SDS011;10088;47.946;2.532;2023-06-14T13:00:22;3.08;;;2.28;;
19854;SDS011;10088;47.946;2.532;2023-06-14T13:02:47;4.15;;;2.40;;
19854;SDS011;10088;47.946;2.532;2023-06-14T13:05:13;3.25;;;2.40;;
19854;SDS011;10088;47.946;2.532;2023-06-14T13:07:38;3.03;;;2.03;;
19854;SDS011;10088;47.946;2.532;2023-06-14T13:10:03;2.42;;;2.22;;
19854;SDS011;10088;47.946;2.532;2023-06-14T13:12:29;4.03;;;2.27;;
19854;SDS011;10088;47.946;2.532;2023-06-14T13:14:54;3.38;;;2.72;;
19854;SDS011;10088;47.946;2.532;2023-06-14T13:17:19;4.97;;;2.90;;
19854;SDS011;10088;47.946;2.532;2023-06-14T13:19:45;4.93;;;2.70;;
19854;SDS011;10088;47.946;2.532;2023-06-14T13:22:10;5.38;;;2.80;;
19854;SDS011;10088;47.946;2.532;2023-06-14T13:24:36;3.05;;;2.28;;
19854;SDS011;10088;47.946;2.532;2023-06-14T13:27:02;3.78;;;2.40;;
19854;SDS011;10088;47.946;2.532;2023-06-14T13:29:27;4.65;;;2.60;;
19854;SDS011;10088;47.946;2.532;2023-06-14T13:31:53;4.97;;;2.45;;
19854;SDS011;10088;47.946;2.532;2023-06-14T13:34:18;4.00;;;2.58;;
19854;SDS011;10088;47.946;2.532;2023-06-14T13:36:43;2.80;;;2.33;;
19854;SDS011;10088;47.946;2.532;2023-06-14T13:39:09;5.68;;;2.50;;
19854;SDS011;10088;47.946;2.532;2023-06-14T13:41:35;2.75;;;2.05;;
19854;SDS011;10088;47.946;2.532;2023-06-14T13:44:01;4.03;;;2.50;;
19854;SDS011;10088;47.946;2.532;2023-06-14T13:46:28;2.67;;;2.30;;
19854;SDS011;10088;47.946;2.532;2023-06-14T13:48:54;4.55;;;2.15;;
19854;SDS011;10088;47.946;2.532;2023-06-14T13:51:19;2.45;;;2.25;;
19854;SDS011;10088;47.946;2.532;2023-06-14T13:53:46;6.93;;;2.55;;
19854;SDS011;10088;47.946;2.532;2023-06-14T13:56:12;4.45;;;2.05;;
19854;SDS011;10088;47.946;2.532;2023-06-14T13:58:37;3.58;;;2.10;;
19854;SDS011;10088;47.946;2.532;2023-06-14T14:01:03;2.70;;;2.30;;
19854;SDS011;10088;47.946;2.532;2023-06-14T14:03:28;4.07;;;2.50;;
19854;SDS011;10088;47.946;2.532;2023-06-14T14:05:53;3.25;;;2.28;;
19854;SDS011;10088;47.946;2.532;2023-06-14T14:08:18;2.83;;;2.50;;
19854;SDS011;10088;47.946;2.532;2023-06-14T14:10:44;3.08;;;2.70;;
19854;SDS011;10088;47.946;2.532;2023-06-14T14:13:09;4.07;;;2.40;;
19854;SDS011;10088;47.946;2.532;2023-06-14T14:15:34;3.22;;;2.60;;
19854;SDS011;10088;47.946;2.532;2023-06-14T14:18:00;3.72;;;2.40;;
19854;SDS011;10088;47.946;2.532;2023-06-14T14:20:25;4.07;;;2.67;;
19854;SDS011;10088;47.946;2.532;2023-06-14T14:22:50;3.53;;;2.40;;
19854;SDS011;10088;47.946;2.532;2023-06-14T14:25:15;5.55;;;2.70;;
19854;SDS011;10088;47.946;2.532;2023-06-14T14:27:41;6.15;;;2.70;;
19854;SDS011;10088;47.946;2.532;2023-06-14T14:30:06;3.92;;;2.55;;
19854;SDS011;10088;47.946;2.532;2023-06-14T14:32:32;3.25;;;2.60;;
19854;SDS011;10088;47.946;2.532;2023-06-14T14:34:57;4.68;;;2.13;;
19854;SDS011;10088;47.946;2.532;2023-06-14T14:37:23;2.60;;;2.40;;
19854;SDS011;10088;47.946;2.532;2023-06-14T14:39:48;3.83;;;2.95;;
19854;SDS011;10088;47.946;2.532;2023-06-14T14:42:14;5.80;;;2.75;;
19854;SDS011;10088;47.946;2.532;2023-06-14T14:44:39;3.63;;;2.60;;
19854;SDS011;10088;47.946;2.532;2023-06-14T14:47:05;3.88;;;2.30;;
19854;SDS011;10088;47.946;2.532;2023-06-14T14:49:30;4.90;;;2.42;;
19854;SDS011;10088;47.946;2.532;2023-06-14T14:51:56;3.33;;;2.28;;
19854;SDS011;10088;47.946;2.532;2023-06-14T14:54:21;3.75;;;2.70;;
19854;SDS011;10088;47.946;2.532;2023-06-14T14:56:46;4.68;;;2.53;;
19854;SDS011;10088;47.946;2.532;2023-06-14T14:59:12;2.83;;;2.45;;
19854;SDS011;10088;47.946;2.532;2023-06-14T15:01:37;2.72;;;2.15;;